Time;durP1;ratioP1;P1;durP2;ratioP2;P2;SDS_P1;SDS_P2;PMS_P1;PMS_P2;Temp;Humidity;BMP_temperature;BMP_pressure;BME280_temperature;BME280_humidity;BME280_pressure;Samples;Min_cycle;Max_cycle;Signal;HPM_P1;HPM_P2
2021/01/18 00:01:36;;;;;;;57.45;25.85;;;;;;;-4.74;68.26;100575.63;5054262;28;20533;-78
2021/01/18 00:04:26;;;;;;;57.13;28.38;;;;;;;-4.90;68.68;100612.94;5054006;28;20047;-77
2021/01/18 00:07:07;;;;;;;45.00;22.20;;;;;;;-4.75;67.90;100613.59;5054950;28;20025;-78
2021/01/18 00:12:56;;;;;;;33.92;17.70;;;;;;;-4.47;69.97;100626.38;5054707;28;20098;-77
2021/01/18 00:15:37;;;;;;;35.85;18.27;;;;;;;-5.43;69.67;100599.00;5054726;28;20060;-77
2021/01/18 00:18:03;;;;;;;39.22;19.80;;;;;;;-4.86;70.44;100630.50;5053698;28;20025;-78
2021/01/18 00:20:32;;;;;;;40.00;20.00;;;;;;;-4.63;68.63;100622.41;5054060;28;20070;-78
2021/01/18 00:22:59;;;;;;;69.88;30.05;;;;;;;-4.58;68.77;100627.56;5055598;28;20029;-77
2021/01/18 00:25:38;;;;;;;51.33;24.25;;;;;;;-4.79;68.27;100616.72;5063093;28;20029;-77
2021/01/18 00:32:08;;;;;;;35.03;16.98;;;;;;;-5.13;69.95;100633.38;5054542;28;20040;-77
2021/01/18 00:34:57;;;;;;;33.80;16.38;;;;;;;-5.07;70.31;100636.97;5053307;28;20039;-77
2021/01/18 00:37:59;;;;;;;45.45;18.85;;;;;;;-5.30;69.27;100640.03;5053677;28;20053;-77
2021/01/18 00:40:40;;;;;;;34.92;15.30;;;;;;;-5.15;71.09;100645.72;5053263;28;20486;-78
2021/01/18 00:43:07;;;;;;;71.93;31.53;;;;;;;-4.63;70.79;100634.78;5054360;28;20032;-77
2021/01/18 00:45:33;;;;;;;56.47;25.13;;;;;;;-5.17;70.57;100639.84;5054459;28;20025;-78
2021/01/18 00:48:02;;;;;;;44.60;20.00;;;;;;;-5.17;70.92;100644.78;5053207;28;20087;-78
2021/01/18 00:51:05;;;;;;;37.13;17.48;;;;;;;-4.99;70.34;100642.28;5053175;28;20025;-78
2021/01/18 00:53:30;;;;;;;35.40;16.33;;;;;;;-4.76;70.35;100635.06;5053229;28;20021;-78
2021/01/18 00:56:03;;;;;;;38.25;16.15;;;;;;;-4.98;70.00;100632.44;5054111;28;20440;-79
2021/01/18 00:58:43;;;;;;;32.50;16.02;;;;;;;-4.99;69.21;100632.38;5054059;28;20095;-79
2021/01/18 01:01:12;;;;;;;60.20;24.95;;;;;;;-4.92;69.13;100635.19;5052815;28;20482;-80
2021/01/18 01:04:04;;;;;;;109.30;40.47;;;;;;;-5.14;70.23;100642.44;5052824;28;20391;-79
2021/01/18 01:06:38;;;;;;;119.63;45.85;;;;;;;-5.54;71.14;100639.78;5053152;28;20029;-79
2021/01/18 01:09:08;;;;;;;127.28;50.05;;;;;;;-4.72;70.74;100638.53;5052870;28;20052;-78
2021/01/18 01:11:33;;;;;;;84.13;37.00;;;;;;;-5.13;69.96;100621.00;5072113;28;20107;-77
2021/01/18 01:14:02;;;;;;;66.07;29.80;;;;;;;-5.10;70.55;100644.28;5052608;28;20032;-78
2021/01/18 01:16:32;;;;;;;63.40;28.55;;;;;;;-5.25;71.17;100646.06;5052486;28;20132;-78
2021/01/18 01:18:58;;;;;;;66.65;29.30;;;;;;;-5.12;71.06;100647.44;5052668;28;20029;-78
2021/01/18 01:21:23;;;;;;;56.70;26.70;;;;;;;-5.13;70.43;100650.72;5052399;28;20063;-79
2021/01/18 01:24:27;;;;;;;53.25;25.05;;;;;;;-4.94;70.20;100651.63;5052578;28;20449;-78
2021/01/18 01:27:07;;;;;;;68.22;30.80;;;;;;;-5.16;72.29;100646.47;5053811;28;20103;-78
2021/01/18 01:29:48;;;;;;;54.40;22.15;;;;;;;-5.49;71.44;100640.84;5052669;28;20414;-77
2021/01/18 01:32:37;;;;;;;60.17;26.10;;;;;;;-5.42;71.52;100652.72;5052654;28;20025;-78
2021/01/18 01:35:09;;;;;;;52.22;22.92;;;;;;;-5.21;71.79;100644.56;5053325;28;20033;-80
2021/01/18 01:37:37;;;;;;;53.05;23.73;;;;;;;-5.05;70.82;100640.34;5052401;28;20100;-80
2021/01/18 01:40:12;;;;;;;50.85;22.67;;;;;;;-5.05;71.08;100646.97;5053331;28;20029;-79
2021/01/18 01:42:39;;;;;;;47.60;21.95;;;;;;;-5.20;70.65;100643.78;5053288;28;20051;-79
2021/01/18 01:45:06;;;;;;;39.17;18.20;;;;;;;-4.65;69.76;100643.81;5065309;28;20016;-79
2021/01/18 01:47:36;;;;;;;43.08;20.98;;;;;;;-4.87;71.55;100645.31;5053015;28;20474;-77
2021/01/18 01:50:06;;;;;;;53.10;25.55;;;;;;;-5.18;70.74;100647.19;5053111;28;20098;-77
2021/01/18 01:52:35;;;;;;;66.30;30.15;;;;;;;-5.38;71.74;100642.19;5050811;28;20417;-77
2021/01/18 01:55:19;;;;;;;60.78;27.55;;;;;;;-4.84;70.33;100646.28;5051413;28;20029;-77
2021/01/18 01:57:49;;;;;;;47.60;22.85;;;;;;;-5.23;69.09;100641.19;5051745;28;20021;-78
2021/01/18 02:00:23;;;;;;;51.92;22.20;;;;;;;-4.74;69.16;100647.53;5052344;28;20092;-77
2021/01/18 02:03:16;;;;;;;45.25;19.63;;;;;;;-5.30;69.50;100654.91;5052540;28;20025;-78
2021/01/18 02:06:02;;;;;;;64.10;28.25;;;;;;;-5.09;70.71;100662.47;5052934;28;20036;-77
2021/01/18 02:08:54;;;;;;;75.18;33.00;;;;;;;-5.42;71.28;100665.09;5052484;28;20032;-78
2021/01/18 02:11:19;;;;;;;61.17;27.85;;;;;;;-5.23;70.19;100659.38;5049046;28;20490;-78
2021/01/18 02:14:36;;;;;;;71.45;30.75;;;;;;;-5.63;70.96;100665.72;5051700;28;20040;-78
2021/01/18 02:17:44;;;;;;;72.85;30.58;;;;;;;-5.03;70.70;100667.69;5051804;28;20028;-79
2021/01/18 02:24:17;;;;;;;40.60;19.47;;;;;;;-5.43;70.58;100668.34;5052439;28;20040;-78
2021/01/18 02:27:20;;;;;;;39.33;18.52;;;;;;;-5.20;70.99;100649.59;5051361;28;20029;-78
2021/01/18 02:30:10;;;;;;;41.50;20.15;;;;;;;-5.33;70.27;100664.69;5051688;28;20033;-78
2021/01/18 02:33:14;;;;;;;45.35;21.55;;;;;;;-5.30;70.68;100664.81;5052431;28;20029;-78
2021/01/18 02:36:00;;;;;;;54.88;24.75;;;;;;;-5.63;71.30;100666.59;5059161;28;20044;-76
2021/01/18 02:39:02;;;;;;;50.42;25.85;;;;;;;-5.55;70.64;100676.84;5055187;28;20060;-77
2021/01/18 02:42:06;;;;;;;46.15;24.00;;;;;;;-5.10;71.13;100669.03;5051275;28;20086;-78
2021/01/18 02:44:55;;;;;;;39.00;17.63;;;;;;;-5.59;72.00;100672.53;5052425;28;20044;-77
2021/01/18 02:47:23;;;;;;;36.30;17.55;;;;;;;-5.34;70.86;100678.69;5051211;28;20435;-78
2021/01/18 02:49:59;;;;;;;35.17;17.23;;;;;;;-5.24;70.90;100659.28;5052385;28;20036;-78
2021/01/18 02:52:42;;;;;;;27.35;14.05;;;;;;;-5.15;70.23;100664.66;5051165;28;20422;-78
2021/01/18 02:55:22;;;;;;;33.55;14.40;;;;;;;-5.40;69.59;100651.16;5052442;28;20124;-78
2021/01/18 02:58:09;;;;;;;28.92;15.93;;;;;;;-5.66;69.64;100673.84;5051400;28;20029;-79
2021/01/18 03:00:53;;;;;;;27.98;14.35;;;;;;;-5.36;69.02;100659.56;5051247;28;20080;-79
2021/01/18 03:03:31;;;;;;;30.02;13.70;;;;;;;-5.40;70.66;100672.59;5055344;28;20561;-78
2021/01/18 03:06:27;;;;;;;26.58;13.10;;;;;;;-5.81;72.03;100678.09;5057720;28;20067;-77
2021/01/18 03:09:16;;;;;;;26.90;12.65;;;;;;;-5.61;69.42;100674.94;5050823;28;20033;-78
2021/01/18 03:11:45;;;;;;;33.10;15.57;;;;;;;-5.31;68.84;100668.09;5047445;28;20057;-78
2021/01/18 03:14:26;;;;;;;42.83;19.70;;;;;;;-5.12;68.97;100674.69;5052280;28;20108;-79
2021/01/18 03:17:03;;;;;;;38.80;16.60;;;;;;;-5.54;69.42;100681.00;5051755;28;20052;-78
2021/01/18 03:19:47;;;;;;;39.00;19.40;;;;;;;-5.77;71.01;100641.97;5050675;28;20021;-79
2021/01/18 03:22:51;;;;;;;38.10;17.98;;;;;;;-5.86;69.63;100681.16;5050740;28;20064;-79
2021/01/18 03:25:47;;;;;;;27.13;12.68;;;;;;;-5.56;69.56;100688.38;5050769;28;20042;-80
2021/01/18 03:31:28;;;;;;;65.30;31.42;;;;;;;-6.16;71.12;100673.09;5052108;28;20041;-79
2021/01/18 03:33:54;;;;;;;48.10;24.25;;;;;;;-5.45;70.38;100684.75;5052173;28;20055;-78
2021/01/18 03:36:38;;;;;;;34.42;17.17;;;;;;;-5.65;70.75;100694.50;5050567;28;20029;-79
2021/01/18 03:39:10;;;;;;;32.40;15.23;;;;;;;-5.70;68.90;100694.28;5050624;28;20025;-78
2021/01/18 03:41:45;;;;;;;34.63;17.27;;;;;;;-5.41;69.00;100703.94;5049618;28;20406;-77
2021/01/18 03:44:11;;;;;;;42.72;21.95;;;;;;;-5.87;69.13;100687.72;5050297;28;20042;-79
2021/01/18 03:46:51;;;;;;;35.92;18.58;;;;;;;-6.02;69.88;100688.59;5049623;28;20036;-78
2021/01/18 03:50:12;;;;;;;36.08;18.67;;;;;;;-5.79;70.13;100705.38;5050344;28;20067;-78
2021/01/18 03:52:53;;;;;;;29.85;15.18;;;;;;;-6.14;69.87;100707.78;5051539;28;20086;-79
2021/01/18 03:55:33;;;;;;;43.60;20.33;;;;;;;-5.65;69.61;100700.31;5050528;28;20094;-78
2021/01/18 03:58:01;;;;;;;43.58;20.27;;;;;;;-5.73;69.65;100691.69;5051455;28;20107;-78
2021/01/18 04:00:30;;;;;;;29.60;14.82;;;;;;;-5.76;70.81;100688.19;5057973;28;20060;-80
2021/01/18 04:03:14;;;;;;;30.75;14.23;;;;;;;-5.80;70.77;100671.53;5054938;28;20090;-78
2021/01/18 04:05:55;;;;;;;27.08;13.48;;;;;;;-5.78;68.53;100700.50;5055587;28;20483;-79
2021/01/18 04:08:44;;;;;;;32.05;14.05;;;;;;;-5.89;70.52;100710.69;5055481;28;20021;-78
2021/01/18 04:11:16;;;;;;;31.48;13.65;;;;;;;-6.37;70.72;100692.66;5055756;28;20026;-79
2021/01/18 04:14:18;;;;;;;33.22;15.27;;;;;;;-5.74;71.69;100709.75;5054148;28;20053;-79
2021/01/18 04:16:59;;;;;;;31.75;16.00;;;;;;;-5.89;70.90;100701.66;5054145;28;20029;-79
2021/01/18 04:19:37;;;;;;;28.40;12.98;;;;;;;-5.86;70.71;100710.84;5053140;28;20494;-79
2021/01/18 04:22:07;;;;;;;28.92;12.70;;;;;;;-5.64;70.03;100716.00;5053817;28;20517;-79
2021/01/18 04:24:38;;;;;;;25.70;13.77;;;;;;;-5.86;68.65;100705.91;5067304;28;20052;-83
2021/01/18 04:27:18;;;;;;;27.90;13.57;;;;;;;-5.65;70.51;100725.06;5054691;28;20029;-82
2021/01/18 04:30:16;;;;;;;29.08;13.77;;;;;;;-5.55;73.63;100731.31;5053592;28;20045;-76
2021/01/18 04:33:19;;;;;;;28.85;13.75;;;;;;;-5.40;76.50;100730.41;5054368;28;20036;-78
2021/01/18 04:35:44;;;;;;;33.25;15.60;;;;;;;-5.48;71.50;100731.66;5052212;28;20482;-77
2021/01/18 04:38:10;;;;;;;37.58;17.08;;;;;;;-5.70;70.07;100735.50;5053478;28;20082;-80
2021/01/18 04:40:36;;;;;;;35.35;16.70;;;;;;;-5.66;70.73;100718.41;5051710;28;20040;-76
2021/01/18 04:43:04;;;;;;;31.60;15.82;;;;;;;-5.86;70.97;100743.84;5033283;28;20021;-77
2021/01/18 04:45:32;;;;;;;33.75;15.05;;;;;;;-6.10;70.92;100734.38;5034353;28;20112;-78
2021/01/18 04:47:58;;;;;;;27.25;13.88;;;;;;;-5.60;71.67;100743.47;5051813;28;20036;-76
2021/01/18 04:50:30;;;;;;;26.15;12.57;;;;;;;-5.98;70.05;100732.50;5052745;28;20052;-77
2021/01/18 04:52:59;;;;;;;;;;;;;;;-5.87;72.84;100747.09;5052550;28;20531;-75
2021/01/18 04:55:42;;;;;;;29.30;13.95;;;;;;;-5.53;70.65;100747.09;5051719;28;19913;-76
2021/01/18 04:58:17;;;;;;;29.85;14.75;;;;;;;-5.64;70.37;100756.47;5053068;28;20041;-77
2021/01/18 05:01:14;;;;;;;36.80;16.45;;;;;;;-5.71;69.74;100754.47;5053787;28;20033;-77
2021/01/18 05:03:44;;;;;;;30.00;16.08;;;;;;;-5.64;72.42;100756.47;5052058;28;20067;-76
2021/01/18 05:06:47;;;;;;;35.75;16.33;;;;;;;-5.60;70.26;100767.34;5052162;28;20120;-75
2021/01/18 05:09:39;;;;;;;32.92;15.70;;;;;;;-5.92;70.53;100767.47;5051996;28;20137;-75
2021/01/18 05:12:05;;;;;;;33.03;15.15;;;;;;;-5.77;70.92;100766.56;5051475;28;20076;-76
2021/01/18 05:14:34;;;;;;;36.05;16.20;;;;;;;-6.03;71.26;100753.69;5051878;28;20056;-77
2021/01/18 05:17:07;;;;;;;42.70;19.05;;;;;;;-6.24;71.85;100774.06;5052451;28;20033;-77
2021/01/18 05:20:07;;;;;;;42.05;18.83;;;;;;;-5.94;71.03;100771.47;5052281;28;20064;-77
2021/01/18 05:22:33;;;;;;;36.40;18.23;;;;;;;-6.04;70.67;100764.38;5052336;28;20136;-77
2021/01/18 05:25:00;;;;;;;42.00;19.63;;;;;;;-6.18;71.34;100778.50;5061569;28;20033;-76
2021/01/18 05:27:28;;;;;;;34.10;16.77;;;;;;;-6.38;71.70;100767.56;5053365;28;20029;-77
2021/01/18 05:29:56;;;;;;;36.22;17.48;;;;;;;-5.97;76.64;100779.59;5052382;28;20060;-80
2021/01/18 05:32:24;;;;;;;32.70;15.88;;;;;;;-6.30;71.61;100753.16;5052789;28;20528;-77
2021/01/18 05:35:11;;;;;;;35.67;15.98;;;;;;;-6.29;71.48;100779.56;5051915;28;20017;-81
2021/01/18 05:38:06;;;;;;;31.52;15.75;;;;;;;-6.12;74.07;100788.72;5052100;28;20029;-79
2021/01/18 05:40:40;;;;;;;31.27;16.15;;;;;;;-6.25;72.64;100783.91;5054579;28;20025;-77
2021/01/18 05:43:06;;;;;;;38.78;18.45;;;;;;;-6.23;73.56;100787.31;5059807;28;20105;-81
2021/01/18 05:45:35;;;;;;;42.42;18.75;;;;;;;-6.10;73.06;100787.16;5053026;28;20131;-84
2021/01/18 05:48:04;;;;;;;49.80;23.73;;;;;;;-6.28;73.06;100791.19;5051581;28;20124;-80
2021/01/18 05:50:30;;;;;;;41.72;19.15;;;;;;;-5.69;72.04;100784.25;5051983;28;20056;-79
2021/01/18 05:52:57;;;;;;;38.88;20.02;;;;;;;-6.37;74.98;100785.75;5050851;28;20071;-78
2021/01/18 05:55:30;;;;;;;57.08;25.85;;;;;;;-6.24;74.69;100788.09;5051955;28;20029;-78
2021/01/18 05:57:57;;;;;;;41.88;20.63;;;;;;;-6.09;73.24;100801.22;5051921;28;20037;-77
2021/01/18 06:00:33;;;;;;;39.15;19.58;;;;;;;-5.98;73.77;100777.88;5052800;28;20104;-77
2021/01/18 06:03:05;;;;;;;50.67;25.25;;;;;;;-5.99;73.37;100797.59;5052570;28;20495;-77
2021/01/18 06:05:32;;;;;;;59.83;26.67;;;;;;;-6.38;74.96;100789.00;5051825;28;20028;-78
2021/01/18 06:08:14;;;;;;;60.90;28.67;;;;;;;-6.02;73.55;100780.97;5052567;28;20032;-78
2021/01/18 06:10:40;;;;;;;70.32;31.70;;;;;;;-5.92;74.02;100793.03;5052603;28;20021;-79
2021/01/18 06:13:18;;;;;;;83.85;41.13;;;;;;;-6.01;73.92;100782.69;5052236;28;20557;-77
2021/01/18 06:15:45;;;;;;;80.53;36.40;;;;;;;-5.63;72.39;100792.84;5052011;28;20029;-79
2021/01/18 06:18:14;;;;;;;74.18;35.53;;;;;;;-5.02;72.11;100805.66;5052559;28;20108;-80
2021/01/18 06:20:41;;;;;;;80.85;37.88;;;;;;;-5.16;69.78;100800.06;5052471;28;20024;-82
2021/01/18 06:23:07;;;;;;;96.30;42.47;;;;;;;-4.55;66.93;100821.97;5052188;28;20049;-79
2021/01/18 06:25:34;;;;;;;78.78;36.33;;;;;;;-4.67;67.46;100808.16;5050651;28;20139;-78
2021/01/18 06:27:59;;;;;;;73.22;36.50;;;;;;;-3.77;64.65;100819.66;5052335;28;20040;-78
2021/01/18 06:30:32;;;;;;;74.10;36.45;;;;;;;-3.83;63.59;100811.09;5050980;28;20496;-79
2021/01/18 06:33:11;;;;;;;80.18;34.55;;;;;;;-3.15;61.78;100804.00;5050744;28;20025;-78
2021/01/18 06:35:37;;;;;;;58.55;27.77;;;;;;;-3.02;60.31;100806.16;5050950;28;20036;-77
2021/01/18 06:38:07;;;;;;;57.53;27.92;;;;;;;-3.78;61.87;100787.28;5050730;28;20021;-77
2021/01/18 06:40:37;;;;;;;47.03;23.60;;;;;;;-2.79;59.27;100827.78;5051071;28;20082;-77
2021/01/18 06:43:05;;;;;;;46.33;23.33;;;;;;;-4.12;63.18;100813.97;5050949;28;20029;-76
2021/01/18 06:45:36;;;;;;;55.85;29.52;;;;;;;-2.26;58.60;100810.78;5050655;28;20056;-76
2021/01/18 06:48:04;;;;;;;60.77;32.10;;;;;;;-2.87;59.35;100821.66;5051310;28;20067;-77
2021/01/18 06:50:35;;;;;;;80.70;43.67;;;;;;;-2.85;60.77;100817.59;5054562;28;20033;-77
2021/01/18 06:53:24;;;;;;;120.22;63.50;;;;;;;-1.74;56.74;100810.94;5050604;28;20082;-77
2021/01/18 06:56:09;;;;;;;124.10;66.28;;;;;;;-1.95;56.22;100827.66;5051661;28;20054;-77
2021/01/18 06:58:54;;;;;;;83.00;38.30;;;;;;;-1.91;56.08;100827.81;5052351;28;20041;-76
2021/01/18 07:01:40;;;;;;;57.50;28.00;;;;;;;-1.86;57.71;100828.81;5064408;28;20040;-76
2021/01/18 07:04:10;;;;;;;38.85;20.10;;;;;;;-1.83;55.52;100833.94;5050519;28;20127;-75
2021/01/18 07:06:38;;;;;;;55.45;26.55;;;;;;;0.14;52.76;100820.16;5051622;28;20056;-75
2021/01/18 07:09:15;;;;;;;48.38;24.05;;;;;;;0.62;50.21;100829.78;5050590;28;20512;-76
2021/01/18 07:11:41;;;;;;;34.20;18.40;;;;;;;0.69;50.32;100829.13;5050249;28;20029;-76
2021/01/18 07:14:12;;;;;;;38.65;19.20;;;;;;;0.89;49.92;100822.13;5050724;28;20565;-76
2021/01/18 07:16:42;;;;;;;47.90;22.85;;;;;;;0.12;51.12;100831.78;5050321;28;20521;-76
2021/01/18 07:19:08;;;;;;;52.83;28.15;;;;;;;1.06;50.23;100833.38;5051380;28;20111;-76
2021/01/18 07:22:03;;;;;;;52.88;26.70;;;;;;;0.67;50.00;100829.91;5051754;28;20029;-76
2021/01/18 07:24:30;;;;;;;31.30;16.67;;;;;;;-1.60;55.42;100842.19;5052542;28;20029;-76
2021/01/18 07:27:17;;;;;;;34.30;18.00;;;;;;;-2.32;60.13;100847.03;5057458;28;20516;-76
2021/01/18 07:29:42;;;;;;;29.33;15.18;;;;;;;-2.52;60.33;100851.25;5060801;28;20067;-77
2021/01/18 07:32:09;;;;;;;30.60;15.90;;;;;;;-3.03;60.87;100852.53;5060392;28;20033;-77
2021/01/18 07:34:36;;;;;;;41.28;21.25;;;;;;;-2.61;60.34;100860.03;5062647;28;20025;-77
2021/01/18 07:37:09;;;;;;;32.30;18.25;;;;;;;-2.36;59.93;100865.13;5062366;28;20055;-77
2021/01/18 07:39:40;;;;;;;43.50;22.73;;;;;;;-2.89;62.40;100868.88;5062520;28;20035;-76
2021/01/18 07:42:25;;;;;;;37.33;20.13;;;;;;;-2.14;61.80;100856.00;5054972;28;20032;-76
2021/01/18 07:45:10;;;;;;;31.88;17.38;;;;;;;-1.81;59.92;100842.28;5054536;28;20500;-76
2021/01/18 07:47:55;;;;;;;35.80;18.88;;;;;;;-1.96;60.17;100855.84;5054267;28;20033;-75
2021/01/18 07:50:26;;;;;;;36.40;19.13;;;;;;;-2.03;59.76;100868.84;5053994;28;20036;-76
2021/01/18 07:53:14;;;;;;;45.30;20.92;;;;;;;-1.71;59.55;100857.56;5055063;28;20095;-76
2021/01/18 07:55:40;;;;;;;32.92;17.70;;;;;;;-3.21;62.36;100853.47;5055066;28;20048;-76
2021/01/18 07:58:20;;;;;;;38.97;22.73;;;;;;;-3.05;61.98;100855.78;5053870;28;20075;-75
2021/01/18 08:00:50;;;;;;;46.58;24.88;;;;;;;-1.97;59.92;100866.59;5053834;28;20036;-76
2021/01/18 08:03:20;;;;;;;35.00;19.63;;;;;;;-2.76;62.96;100871.06;5053604;28;20025;-76
2021/01/18 08:05:46;;;;;;;32.83;17.40;;;;;;;-1.99;62.59;100866.53;5054218;28;20521;-77
2021/01/18 08:08:16;;;;;;;28.58;14.38;;;;;;;-2.25;60.66;100854.78;5053952;28;20415;-77
2021/01/18 08:10:58;;;;;;;27.90;13.63;;;;;;;-2.52;61.77;100875.28;5054711;28;20032;-77
2021/01/18 08:13:40;;;;;;;26.95;14.32;;;;;;;-2.26;61.72;100847.25;5053596;28;20056;-77
2021/01/18 08:16:21;;;;;;;30.08;15.13;;;;;;;-2.21;62.73;100858.22;5068035;28;20067;-78
2021/01/18 08:19:15;;;;;;;22.15;12.30;;;;;;;-1.50;60.78;100860.78;5062477;28;20090;-77
2021/01/18 08:21:45;;;;;;;26.80;15.02;;;;;;;-1.13;59.15;100864.56;5055356;28;20028;-79
2021/01/18 08:24:14;;;;;;;23.13;12.82;;;;;;;-1.50;61.42;100865.75;5054366;28;20025;-78
2021/01/18 08:26:50;;;;;;;24.23;12.68;;;;;;;-0.89;60.38;100872.00;5053648;28;20044;-78
2021/01/18 08:29:47;;;;;;;25.27;13.45;;;;;;;-1.51;60.03;100864.09;5053691;28;20044;-78
2021/01/18 08:32:33;;;;;;;16.30;8.93;;;;;;;-1.54;55.88;100859.84;5053488;28;20399;-77
2021/01/18 08:34:59;;;;;;;31.20;15.35;;;;;;;-1.86;58.17;100847.88;5054400;28;20036;-77
2021/01/18 08:37:27;;;;;;;27.08;13.60;;;;;;;-2.09;56.95;100841.25;5053015;28;20036;-77
2021/01/18 08:39:54;;;;;;;27.60;14.45;;;;;;;-1.95;56.33;100860.88;5054672;28;20062;-76
2021/01/18 08:42:31;;;;;;;33.72;19.55;;;;;;;-1.67;54.82;100855.22;5054257;28;20113;-77
2021/01/18 08:45:01;;;;;;;26.33;14.77;;;;;;;-1.84;56.28;100842.16;5052956;28;20091;-77
2021/01/18 08:47:45;;;;;;;21.40;10.68;;;;;;;-1.79;54.11;100847.31;5052993;28;20036;-77
2021/01/18 08:50:27;;;;;;;22.13;10.45;;;;;;;-2.22;55.34;100837.44;5054092;28;20031;-78
2021/01/18 08:52:58;;;;;;;20.38;11.43;;;;;;;-1.44;56.80;100853.50;5053809;28;20025;-78
2021/01/18 08:55:30;;;;;;;;;;;;;;;-1.34;55.19;100848.03;5054834;28;20025;-76
2021/01/18 08:57:59;;;;;;;26.52;14.02;;;;;;;-1.71;56.13;100837.63;5053024;28;19916;-77
2021/01/18 09:00:40;;;;;;;28.88;14.02;;;;;;;-1.30;56.90;100828.25;5052840;28;20033;-77
2021/01/18 09:03:06;;;;;;;15.57;7.90;;;;;;;-0.95;55.05;100831.88;5052893;28;20127;-78
2021/01/18 09:05:32;;;;;;;19.70;11.07;;;;;;;-1.38;56.52;100837.13;5053765;28;20427;-77
2021/01/18 09:08:00;;;;;;;24.92;13.90;;;;;;;-1.00;56.70;100835.88;5052753;28;20032;-78
2021/01/18 09:10:27;;;;;;;25.30;13.00;;;;;;;-0.91;54.79;100827.03;5052755;28;20071;-79
2021/01/18 09:12:54;;;;;;;27.10;13.55;;;;;;;-1.18;53.52;100833.66;5053735;28;20052;-77
2021/01/18 09:15:20;;;;;;;39.17;17.98;;;;;;;-1.21;53.38;100830.22;5052532;28;20095;-77
2021/01/18 09:17:47;;;;;;;37.67;16.88;;;;;;;-0.69;52.14;100833.53;5052425;28;20529;-77
2021/01/18 09:20:13;;;;;;;20.77;11.40;;;;;;;-0.62;52.62;100829.59;5053028;28;20081;-77
2021/01/18 09:22:42;;;;;;;19.65;11.57;;;;;;;-1.35;52.31;100836.38;5053533;28;20028;-78
2021/01/18 09:25:09;;;;;;;19.65;11.10;;;;;;;-1.29;51.96;100829.97;5053436;28;20066;-78
2021/01/18 09:27:37;;;;;;;23.25;12.57;;;;;;;-1.16;51.36;100813.75;5053436;28;20108;-78
2021/01/18 09:30:16;;;;;;;16.15;8.02;;;;;;;-1.20;51.18;100789.50;5053546;28;20025;-78
2021/01/18 09:33:05;;;;;;;21.58;10.30;;;;;;;-0.79;50.31;100803.28;5053201;28;20021;-77
2021/01/18 09:35:33;;;;;;;28.98;15.02;;;;;;;-0.40;49.58;100824.44;5052101;28;20112;-77
2021/01/18 09:37:59;;;;;;;18.75;9.23;;;;;;;-1.03;51.03;100800.88;5068170;28;20036;-78
2021/01/18 09:40:25;;;;;;;21.95;11.25;;;;;;;-0.55;50.19;100799.00;5053252;28;20566;-77
2021/01/18 09:42:53;;;;;;;16.67;8.68;;;;;;;-0.71;49.00;100794.38;5065249;28;20425;-76
2021/01/18 09:45:19;;;;;;;18.60;9.60;;;;;;;-0.82;48.57;100793.19;5053432;28;20037;-75
2021/01/18 09:47:44;;;;;;;14.30;7.72;;;;;;;-0.70;48.39;100776.94;5051671;28;20021;-76
2021/01/18 09:50:13;;;;;;;18.88;10.10;;;;;;;-0.35;46.75;100781.31;5051853;28;20029;-77
2021/01/18 09:52:42;;;;;;;22.27;13.52;;;;;;;-0.42;46.98;100776.97;5051701;28;20025;-78
2021/01/18 09:55:19;;;;;;;17.20;8.65;;;;;;;-0.52;48.97;100772.50;5052904;28;20060;-78
2021/01/18 09:57:49;;;;;;;16.63;8.63;;;;;;;0.08;48.49;100750.03;5052889;28;20033;-78
2021/01/18 10:00:20;;;;;;;16.48;9.05;;;;;;;0.36;46.56;100764.91;5051315;28;20112;-78
2021/01/18 10:02:48;;;;;;;37.38;17.08;;;;;;;0.08;45.56;100757.53;5051938;28;20036;-78
2021/01/18 10:05:23;;;;;;;35.80;15.15;;;;;;;-0.08;45.41;100739.59;5051736;28;20565;-78
2021/01/18 10:07:52;;;;;;;24.95;13.40;;;;;;;0.75;43.99;100758.41;5051393;28;20036;-78
2021/01/18 10:10:17;;;;;;;20.42;9.88;;;;;;;0.39;45.18;100752.50;5052404;28;20098;-75
2021/01/18 10:12:49;;;;;;;31.85;14.30;;;;;;;0.18;46.38;100752.78;5051386;28;20057;-79
2021/01/18 10:15:23;;;;;;;53.60;23.83;;;;;;;0.51;44.92;100736.16;5051396;28;20482;-80
2021/01/18 10:17:49;;;;;;;40.05;19.02;;;;;;;0.58;44.35;100734.63;5051294;28;20028;-76
2021/01/18 10:20:21;;;;;;;44.05;18.98;;;;;;;0.30;44.37;100742.28;5052319;28;20156;-77
2021/01/18 10:22:46;;;;;;;29.83;14.73;;;;;;;0.80;43.85;100735.19;5052008;28;20509;-76
2021/01/18 10:25:13;;;;;;;18.88;10.35;;;;;;;0.58;41.85;100732.13;5051176;28;20025;-77
2021/01/18 10:27:49;;;;;;;22.92;12.57;;;;;;;0.72;42.51;100711.63;5051306;28;20032;-77
2021/01/18 10:30:19;;;;;;;20.38;11.98;;;;;;;0.95;41.74;100733.84;5052225;28;20040;-78
2021/01/18 10:32:47;;;;;;;27.05;13.25;;;;;;;1.51;40.51;100709.19;5057609;28;20033;-77
2021/01/18 10:35:33;;;;;;;15.93;9.10;;;;;;;1.18;41.96;100710.16;5057485;28;20453;-75
2021/01/18 10:38:17;;;;;;;17.23;9.90;;;;;;;1.73;39.73;100720.47;5056176;28;20478;-75
2021/01/18 10:41:07;;;;;;;21.55;12.13;;;;;;;1.54;43.34;100710.91;5058439;28;20035;-76
2021/01/18 10:43:49;;;;;;;21.70;11.70;;;;;;;2.51;51.68;100703.50;5055203;28;20063;-76
2021/01/18 10:46:18;;;;;;;;;;;;;;;1.96;41.99;100710.91;5053613;28;20036;-78
2021/01/18 10:48:58;;;;;;;19.27;11.60;;;;;;;1.58;43.60;100696.00;5051520;28;19913;-77
2021/01/18 10:52:05;;;;;;;17.30;10.10;;;;;;;1.65;42.09;100702.78;5051179;28;20029;-77
2021/01/18 10:54:34;;;;;;;24.45;13.55;;;;;;;1.63;41.23;100703.56;5053415;28;20037;-77
2021/01/18 10:57:22;;;;;;;43.17;23.05;;;;;;;1.70;42.49;100691.19;5063822;28;20108;-78
2021/01/18 11:00:28;;;;;;;25.38;14.27;;;;;;;2.05;41.99;100686.84;5050540;28;20040;-78
2021/01/18 11:03:04;;;;;;;66.10;32.45;;;;;;;1.25;42.59;100650.22;5050434;28;20094;-77
2021/01/18 11:06:08;;;;;;;41.70;23.55;;;;;;;1.72;40.54;100678.72;5050612;28;20032;-76
2021/01/18 11:08:34;;;;;;;12.73;6.93;;;;;;;0.98;39.12;100668.81;5056629;28;20037;-76
2021/01/18 11:11:40;;;;;;;14.40;8.38;;;;;;;1.62;40.19;100680.16;5061788;28;20025;-77
2021/01/18 11:14:12;;;;;;;14.18;8.02;;;;;;;1.74;39.15;100672.88;4978218;28;20571;-76
2021/01/18 11:19:59;;;;;;;13.13;8.20;;;;;;;1.78;37.82;100674.63;5055990;28;20090;-76
2021/01/18 11:25:46;;;;;;;24.73;12.30;;;;;;;2.14;36.10;100666.09;5055557;28;20106;-76
2021/01/18 11:28:20;;;;;;;16.67;9.00;;;;;;;2.29;37.26;100666.34;5055577;28;20024;-77
2021/01/18 11:31:13;;;;;;;16.17;8.02;;;;;;;2.47;36.79;100661.63;5055787;28;20033;-77
2021/01/18 11:34:13;;;;;;;27.42;14.48;;;;;;;2.40;35.20;100657.31;5054539;28;20025;-78
2021/01/18 11:36:41;;;;;;;16.60;8.48;;;;;;;2.41;35.81;100648.97;5054363;28;20028;-76
2021/01/18 11:39:23;;;;;;;17.42;10.00;;;;;;;2.50;35.41;100641.56;5055376;28;20604;-76
2021/01/18 11:42:05;;;;;;;;;;;;;;;2.61;34.44;100655.97;5055123;28;20033;-77
2021/01/18 11:44:34;;;;;;;72.88;28.33;;;;;;;2.48;36.26;100653.25;5054218;28;19913;-77
2021/01/18 11:50:21;;;;;;;17.92;10.57;;;;;;;2.53;34.56;100657.53;5055550;28;20040;-76
2021/01/18 11:53:18;;;;;;;21.63;10.70;;;;;;;2.56;35.09;100649.19;5053895;28;20422;-77
2021/01/18 11:55:58;;;;;;;11.20;7.05;;;;;;;3.00;35.33;100644.81;5054002;28;20076;-77
2021/01/18 11:58:24;;;;;;;16.25;8.63;;;;;;;2.57;34.51;100654.25;5055048;28;20048;-78
2021/01/18 12:01:08;;;;;;;15.55;9.20;;;;;;;2.82;34.53;100649.56;5054313;28;20486;-79
2021/01/18 12:04:09;;;;;;;14.93;7.82;;;;;;;2.76;34.62;100650.34;5053799;28;20543;-73
2021/01/18 12:09:56;;;;;;;12.73;7.67;;;;;;;3.61;33.82;100638.81;5055220;28;20044;-75
2021/01/18 12:12:22;;;;;;;15.70;8.77;;;;;;;3.57;34.19;100640.47;5054380;28;20040;-75
2021/01/18 12:14:47;;;;;;;15.13;9.60;;;;;;;3.37;33.92;100642.75;5055929;28;20029;-75
2021/01/18 12:20:35;;;;;;;8.10;5.43;;;;;;;3.02;33.63;100625.56;5055095;28;20098;-75
2021/01/18 12:23:53;;;;;;;14.93;9.43;;;;;;;3.58;34.71;100627.09;5053669;28;20025;-77
2021/01/18 12:29:40;;;;;;;17.03;11.83;;;;;;;2.90;34.13;100620.41;5055077;28;20483;-76